Dulzura, CA (91917)

4:28 AM PDT on August 21, 2014 (GMT -0700)
Deerhorn Valley- Rock Bottom Ranch | Change Station
CLOSE
Current Station
Personal Weather Station
Location: Jamul, CA
Elevation: 2533 ft
Nearby Weather Stations

Elev 2533 ft 32.65 °N, 116.73 °W | Updated 5 minutes ago

Overcast
Overcast
59.4 °F
Feels Like 59.4 °F
N
3.2
Wind Variable Wind from SSE

Today
High -- | Low -- °F
--% Chance of Precip.
Yesterday
High -- | Low -- °F
Precip. -- in
6:14 AM 7:25 PM
Waning Crescent, 15% visible
Pressure 29.91 in
Visibility 10.0 miles
Clouds Overcast 1400 ft
Dew Point 55 °F
Humidity 86%
Rainfall 0.00 in
Snow Depth Not available.
UV 0 out of 12
Pollen 4.80 out of 12
Ozone Good
PM2.5 Good
Flu Activity Not available.
METAR KSDM 211053Z AUTO 00000KT 10SM OVC014 20/16 A2992 RMK AO2 SLP128 T02000161 TSNO $

More Conditions Fewer Conditions

Pressure 29.91 in
Visibility 10.0 miles
Clouds Overcast 1400 ft
Dew Point 55 °F
Humidity 86%
Rainfall 0.00 in
Snow Depth Not available.
UV 0 out of 12
Pollen 4.80 out of 12
Ozone Good
PM2.5 Good
Flu Activity Not available.
METAR KSDM 211053Z AUTO 00000KT 10SM OVC014 20/16 A2992 RMK AO2 SLP128 T02000161 TSNO $

More Conditions Fewer Conditions

10-Day Weather Forecast

Almanac

Astronomy

Aug. 21, 2014 Rise Set
Actual Time 6:14 AM PDT 7:25 PM PDT
Civil Twilight 5:49 AM PDT 7:50 PM PDT
Nautical Twilight 5:18 AM PDT 8:20 PM PDT
Astronomical Twilight 4:47 AM PDT 8:52 PM PDT
Moon 2:54 AM PDT 4:52 PM PDT
Length of Visible Light 14h 01m
Length of Day
13h 10m
Tomorrow will be 1m 51s shorter.
Waning Crescent, 15% of the Moon is Illuminated
Today
Waning Crescent
Aug 25
New
Sep 2
First Quarter
Sep 8
Full
Sep 15
Last Quarter

Today's Extremes

State Highs State Lows

Community

WunderPhotos

Upload Photos

1,745,870 photos uploaded!

Nearby

Air Quality

  Air Quality AQ Index Pollutant
Yesterday Good
PM2.5
Current Good
PM2.5
Current Good
OZONE
Thursday Good
PM2.5
Thursday Good
OZONE

Snow Depth

Station Depth Elevation
Leavitt Lake 0 in 9400 ft
Leavitt Meadows 1 in 7200 ft
Summit Meadow 1 in 9122 ft
Ebbetts Pass 0 in 8700 ft
Monitor Pass 0 in 8350 ft

Earthquake Activity

City Distance Mag. Time & Date
Malibu Beach, California 145 miles 3.4 10:03 AM PDT
2014-08-15
Yucca Valley, California 118 miles 3.8 8:57 PM PDT
2014-08-14
Alberto Oviedo Mota, Mexico 101 miles 2.8 3:03 PM PDT
2014-08-14
Salton City, California 62 miles 2.6 6:58 AM PDT
2014-08-14
Minimum magnitude displayed is 2.5.

Coastal Water Temperatures

Place Temperature
La Jolla, CA 73.0 °F
San Diego, CA 73.9 °F

Nearby Weather Stations